createdAt,value
2023-09-08T00:00:12.151Z,4.75
2023-09-08T00:02:41.298Z,5.10
2023-09-08T00:05:10.305Z,4.95
2023-09-08T00:07:39.305Z,5.57
2023-09-08T00:10:09.233Z,5.50
2023-09-08T00:12:37.886Z,5.40
2023-09-08T00:15:08.380Z,5.47
2023-09-08T00:17:39.113Z,5.28
2023-09-08T00:20:43.148Z,5.90
2023-09-08T00:23:12.091Z,5.95
2023-09-08T00:25:40.729Z,5.90
2023-09-08T00:28:09.429Z,6.25
2023-09-08T00:30:38.404Z,6.30
2023-09-08T00:33:10.014Z,5.95
2023-09-08T00:35:39.131Z,6.15
2023-09-08T00:38:08.604Z,6.35
2023-09-08T00:40:37.335Z,5.82
2023-09-08T00:43:06.231Z,5.75
2023-09-08T00:45:40.078Z,7.18
2023-09-08T00:48:11.414Z,6.13
2023-09-08T00:50:41.026Z,6.28
2023-09-08T00:53:10.563Z,6.07
2023-09-08T00:55:41.361Z,5.78
2023-09-08T00:58:10.300Z,6.93
2023-09-08T01:00:38.938Z,6.07
2023-09-08T01:03:07.717Z,6.03
2023-09-08T01:05:38.076Z,7.03
2023-09-08T01:08:09.091Z,6.40
2023-09-08T01:10:40.311Z,6.78
2023-09-08T01:13:08.949Z,6.18
2023-09-08T01:15:37.850Z,6.95
2023-09-08T01:18:09.807Z,7.05
2023-09-08T01:20:58.326Z,6.60
2023-09-08T01:23:38.711Z,7.53
2023-09-08T01:26:13.928Z,7.07
2023-09-08T01:28:45.789Z,6.68
2023-09-08T01:31:15.731Z,7.53
2023-09-08T01:33:50.323Z,7.07
2023-09-08T01:36:19.279Z,7.20
2023-09-08T01:38:48.065Z,6.95
2023-09-08T01:41:18.053Z,6.95
2023-09-08T01:43:46.889Z,7.32
2023-09-08T01:46:15.862Z,8.27
2023-09-08T01:48:44.945Z,7.78
2023-09-08T01:51:14.227Z,7.75
2023-09-08T01:53:43.419Z,7.53
2023-09-08T01:56:14.570Z,7.85
2023-09-08T01:58:45.523Z,7.47
2023-09-08T02:01:14.415Z,7.05
2023-09-08T02:03:43.638Z,7.30
2023-09-08T02:06:15.774Z,7.80
2023-09-08T02:08:58.591Z,7.43
2023-09-08T02:11:27.913Z,7.70
2023-09-08T02:13:58.799Z,7.95
2023-09-08T02:16:27.933Z,7.78
2023-09-08T02:18:56.847Z,8.73
2023-09-08T02:21:26.041Z,8.23
2023-09-08T02:23:55.963Z,7.25
2023-09-08T02:26:27.719Z,7.30
2023-09-08T02:28:57.916Z,7.72
2023-09-08T02:31:27.260Z,7.57
2023-09-08T02:34:07.441Z,7.18
2023-09-08T02:36:38.685Z,6.30
2023-09-08T02:39:08.192Z,7.45
2023-09-08T02:41:36.825Z,8.27
2023-09-08T02:44:08.019Z,8.82
2023-09-08T02:46:37.882Z,8.75
2023-09-08T02:49:06.645Z,8.27
2023-09-08T02:51:35.529Z,8.48
2023-09-08T02:54:24.376Z,7.43
2023-09-08T02:56:55.716Z,8.73
2023-09-08T02:59:25.695Z,8.05
2023-09-08T03:01:54.921Z,7.35
2023-09-08T03:04:26.476Z,8.32
2023-09-08T03:06:55.400Z,8.27
2023-09-08T03:09:24.188Z,8.75
2023-09-08T03:11:53.240Z,8.38
2023-09-08T03:14:22.347Z,8.65
2023-09-08T03:16:52.430Z,9.45
2023-09-08T03:19:21.215Z,8.63
2023-09-08T03:21:49.915Z,9.55
2023-09-08T03:24:18.693Z,9.98
2023-09-08T03:26:47.421Z,10.30
2023-09-08T03:29:16.009Z,9.80
2023-09-08T03:31:44.854Z,8.88
2023-09-08T03:34:15.410Z,9.20
2023-09-08T03:36:44.316Z,8.95
2023-09-08T03:39:13.056Z,8.55
2023-09-08T03:41:42.002Z,9.85
2023-09-08T03:44:11.139Z,10.82
2023-09-08T03:46:40.302Z,9.05
2023-09-08T03:49:12.521Z,9.68
2023-09-08T03:51:42.854Z,8.98
2023-09-08T03:54:14.211Z,8.75
2023-09-08T03:56:42.833Z,9.07
2023-09-08T03:59:11.709Z,8.68
2023-09-08T04:01:41.049Z,9.52
2023-09-08T04:04:12.388Z,9.35
2023-09-08T04:06:45.321Z,9.90
2023-09-08T04:09:14.138Z,9.32
2023-09-08T04:11:43.605Z,8.80
2023-09-08T04:14:12.533Z,9.57
2023-09-08T04:16:41.249Z,9.20
2023-09-08T04:19:13.513Z,9.13
2023-09-08T04:21:43.287Z,8.95
2023-09-08T04:24:13.855Z,9.93
2023-09-08T04:26:42.582Z,9.55
2023-09-08T04:29:11.674Z,8.98
2023-09-08T04:31:40.775Z,8.65
2023-09-08T04:34:09.623Z,9.45
2023-09-08T04:36:38.336Z,8.23
2023-09-08T04:39:07.031Z,9.93
2023-09-08T04:41:36.978Z,10.10
2023-09-08T04:44:06.055Z,9.88
2023-09-08T04:46:48.936Z,9.48
2023-09-08T04:49:17.586Z,10.02
2023-09-08T04:51:46.260Z,14.05
2023-09-08T04:54:14.990Z,11.18
2023-09-08T04:56:45.149Z,10.45
2023-09-08T04:59:13.795Z,13.63
2023-09-08T05:01:42.673Z,9.52
2023-09-08T05:04:11.543Z,10.50
2023-09-08T05:06:40.769Z,10.13
2023-09-08T05:09:09.899Z,10.13
2023-09-08T05:11:39.031Z,8.75
2023-09-08T05:14:09.919Z,9.40
2023-09-08T05:16:39.203Z,9.20
2023-09-08T05:19:08.253Z,9.93
2023-09-08T05:21:38.264Z,10.00
2023-09-08T05:24:08.148Z,9.73
2023-09-08T05:26:39.918Z,9.70
2023-09-08T05:29:09.999Z,9.55
2023-09-08T05:31:39.236Z,10.13
2023-09-08T05:34:08.075Z,9.23
2023-09-08T05:36:38.030Z,9.68
2023-09-08T05:39:06.947Z,8.65
2023-09-08T05:41:35.864Z,8.57
2023-09-08T05:44:04.801Z,9.10
2023-09-08T05:46:34.946Z,8.25
2023-09-08T05:49:03.738Z,8.68
2023-09-08T05:51:33.365Z,8.27
2023-09-08T05:54:02.232Z,8.07
2023-09-08T05:56:32.753Z,8.35
2023-09-08T05:59:02.322Z,8.18
2023-09-08T06:01:31.591Z,7.63
2023-09-08T06:04:02.596Z,8.23
2023-09-08T06:06:31.627Z,7.32
2023-09-08T06:09:00.736Z,7.43
2023-09-08T06:11:30.591Z,7.05
2023-09-08T06:14:00.567Z,8.13
2023-09-08T06:16:29.592Z,7.90
2023-09-08T06:18:58.506Z,7.78
2023-09-08T06:21:28.492Z,8.77
2023-09-08T06:23:57.202Z,8.00
2023-09-08T06:26:25.942Z,7.88
2023-09-08T06:28:55.006Z,7.82
2023-09-08T06:31:24.247Z,8.70
2023-09-08T06:33:53.402Z,8.00
2023-09-08T06:36:22.717Z,8.25
2023-09-08T06:38:53.144Z,8.15
2023-09-08T06:41:24.023Z,8.07
2023-09-08T06:43:53.126Z,7.38
2023-09-08T06:46:21.784Z,7.00
2023-09-08T06:48:50.670Z,6.97
2023-09-08T06:51:20.716Z,6.57
2023-09-08T06:53:58.072Z,6.70
2023-09-08T06:56:26.844Z,6.38
2023-09-08T06:58:55.451Z,6.60
2023-09-08T07:01:24.322Z,6.35
2023-09-08T07:03:53.351Z,7.18
2023-09-08T07:06:23.290Z,5.60
2023-09-08T07:08:52.318Z,6.15
2023-09-08T07:11:22.684Z,5.88
2023-09-08T07:13:51.513Z,5.60
2023-09-08T07:16:20.247Z,6.15
2023-09-08T07:18:49.184Z,6.40
2023-09-08T07:21:17.903Z,5.50
2023-09-08T07:24:08.378Z,5.93
2023-09-08T07:26:38.526Z,6.00
2023-09-08T07:29:10.290Z,6.22
2023-09-08T07:31:39.521Z,6.30
2023-09-08T07:34:08.387Z,5.18
2023-09-08T07:36:37.983Z,5.35
2023-09-08T07:39:11.709Z,4.82
2023-09-08T07:41:42.474Z,5.63
2023-09-08T07:44:11.329Z,5.45
2023-09-08T07:46:39.972Z,5.20
2023-09-08T07:49:08.587Z,5.28
2023-09-08T07:51:37.142Z,5.20
2023-09-08T07:54:06.351Z,4.80
2023-09-08T07:56:35.220Z,5.28
2023-09-08T07:59:05.698Z,5.38
2023-09-08T08:01:34.695Z,5.32
2023-09-08T08:04:04.911Z,5.38
2023-09-08T08:06:33.834Z,4.95
2023-09-08T08:09:03.410Z,5.50
2023-09-08T08:11:32.230Z,5.47
2023-09-08T08:14:02.107Z,4.93
2023-09-08T08:16:32.636Z,6.43
2023-09-08T08:19:04.561Z,4.93
2023-09-08T08:21:33.284Z,5.28
2023-09-08T08:24:02.368Z,5.50
2023-09-08T08:26:33.740Z,5.68
2023-09-08T08:29:02.435Z,4.55
2023-09-08T08:31:34.175Z,4.38
2023-09-08T08:34:02.973Z,4.75
2023-09-08T08:36:31.684Z,5.32
2023-09-08T08:39:00.531Z,4.65
2023-09-08T08:41:30.844Z,5.40
2023-09-08T08:44:00.786Z,5.07
2023-09-08T08:46:30.121Z,4.90
2023-09-08T08:49:01.643Z,5.43
2023-09-08T08:51:34.430Z,4.70
2023-09-08T08:54:05.481Z,4.70
2023-09-08T08:56:35.170Z,4.47
2023-09-08T08:59:04.129Z,4.60
2023-09-08T09:01:33.626Z,4.40
2023-09-08T09:04:07.782Z,4.82
2023-09-08T09:06:37.075Z,4.53
2023-09-08T09:09:06.173Z,5.00
2023-09-08T09:11:34.836Z,6.18
2023-09-08T09:14:03.721Z,4.45
2023-09-08T09:16:32.424Z,4.35
2023-09-08T09:19:03.396Z,4.25
2023-09-08T09:21:44.586Z,5.20
2023-09-08T09:24:18.832Z,5.53
2023-09-08T09:26:54.276Z,4.00
2023-09-08T09:29:23.103Z,4.55
2023-09-08T09:31:56.043Z,4.18
2023-09-08T09:34:26.314Z,4.05
2023-09-08T09:36:55.049Z,3.53
2023-09-08T09:39:27.521Z,4.78
2023-09-08T09:41:57.452Z,4.28
2023-09-08T09:44:27.145Z,4.50
2023-09-08T09:46:56.464Z,5.05
2023-09-08T09:49:28.165Z,4.55
2023-09-08T09:51:56.922Z,4.20
2023-09-08T09:54:25.571Z,4.35
2023-09-08T09:56:55.304Z,4.22
2023-09-08T09:59:25.345Z,4.25
2023-09-08T10:01:55.373Z,4.50
2023-09-08T10:04:24.541Z,4.20
2023-09-08T10:06:55.568Z,4.32
2023-09-08T10:09:26.087Z,4.18
2023-09-08T10:11:56.825Z,4.50
2023-09-08T10:14:27.108Z,4.68
2023-09-08T10:17:01.394Z,4.65
2023-09-08T10:19:31.399Z,4.53
2023-09-08T10:22:05.614Z,3.60
2023-09-08T10:24:36.919Z,4.53
2023-09-08T10:27:09.674Z,4.18
2023-09-08T10:29:38.953Z,4.28
2023-09-08T10:32:10.365Z,3.88
2023-09-08T10:34:42.255Z,4.70
2023-09-08T10:37:22.925Z,3.97
2023-09-08T10:39:52.069Z,4.22
2023-09-08T10:42:27.415Z,4.50
2023-09-08T10:45:05.504Z,4.28
2023-09-08T10:47:41.912Z,4.10
2023-09-08T10:50:18.928Z,3.95
2023-09-08T10:53:06.862Z,4.50
2023-09-08T10:55:42.870Z,3.80
2023-09-08T10:58:12.665Z,3.75
2023-09-08T11:00:49.856Z,3.65
2023-09-08T11:03:29.425Z,4.05
2023-09-08T11:05:58.555Z,3.90
2023-09-08T11:08:29.419Z,3.45
2023-09-08T11:10:58.929Z,4.28
2023-09-08T11:13:27.535Z,4.13
2023-09-08T11:15:56.201Z,3.80
2023-09-08T11:18:28.501Z,4.28
2023-09-08T11:20:58.512Z,4.07
2023-09-08T11:23:28.658Z,3.90
2023-09-08T11:25:57.559Z,3.70
2023-09-08T11:28:28.416Z,3.75
2023-09-08T11:30:57.781Z,3.67
2023-09-08T11:33:26.971Z,3.92
2023-09-08T11:35:59.192Z,3.40
2023-09-08T11:38:31.107Z,3.97
2023-09-08T11:41:00.912Z,3.75
2023-09-08T11:43:29.520Z,3.63
2023-09-08T11:45:58.313Z,4.07
2023-09-08T11:48:27.213Z,3.50
2023-09-08T11:50:56.203Z,3.30
2023-09-08T11:53:25.701Z,3.85
2023-09-08T11:55:56.083Z,3.75
2023-09-08T11:58:25.080Z,6.15
2023-09-08T12:00:53.882Z,3.90
2023-09-08T12:03:22.806Z,3.90
2023-09-08T12:05:54.081Z,3.58
2023-09-08T12:08:22.892Z,3.72
2023-09-08T12:10:51.748Z,4.13
2023-09-08T12:13:24.836Z,3.72
2023-09-08T12:16:20.440Z,4.07
2023-09-08T12:18:49.834Z,4.60
2023-09-08T12:21:18.590Z,4.03
2023-09-08T12:23:51.163Z,3.80
2023-09-08T12:26:20.462Z,3.10
2023-09-08T12:28:50.528Z,4.40
2023-09-08T12:31:19.823Z,3.72
2023-09-08T12:33:48.777Z,4.15
2023-09-08T12:36:19.406Z,4.13
2023-09-08T12:38:53.513Z,4.10
2023-09-08T12:41:22.402Z,3.95
2023-09-08T12:43:53.155Z,3.70
2023-09-08T12:46:21.855Z,3.92
2023-09-08T12:48:50.556Z,4.80
2023-09-08T12:51:19.396Z,3.83
2023-09-08T12:53:48.114Z,4.32
2023-09-08T12:56:17.328Z,3.78
2023-09-08T12:58:46.523Z,3.70
2023-09-08T13:01:16.626Z,3.80
2023-09-08T13:03:45.243Z,3.88
2023-09-08T13:06:13.963Z,4.43
2023-09-08T13:08:42.546Z,4.00
2023-09-08T13:11:11.085Z,3.83
2023-09-08T13:13:39.718Z,3.72
2023-09-08T13:16:08.321Z,4.00
2023-09-08T13:18:39.871Z,3.80
2023-09-08T13:21:08.792Z,4.30
2023-09-08T13:23:37.606Z,3.97
2023-09-08T13:26:06.175Z,4.18
2023-09-08T13:28:35.154Z,3.53
2023-09-08T13:31:04.140Z,3.88
2023-09-08T13:33:32.879Z,4.07
2023-09-08T13:36:02.850Z,4.55
2023-09-08T13:38:31.754Z,4.20
2023-09-08T13:41:00.416Z,4.10
2023-09-08T13:43:28.969Z,3.95
2023-09-08T13:45:57.633Z,3.50
2023-09-08T13:48:26.540Z,4.20
2023-09-08T13:50:56.077Z,4.40
2023-09-08T13:53:41.813Z,3.40
2023-09-08T13:56:19.999Z,4.03
2023-09-08T13:58:51.216Z,4.22
2023-09-08T14:01:21.254Z,4.13
2023-09-08T14:06:29.782Z,3.97
2023-09-08T14:11:56.117Z,3.90
2023-09-08T14:14:22.689Z,4.13
2023-09-08T14:16:51.442Z,4.03
2023-09-08T14:19:20.143Z,3.97
2023-09-08T14:21:48.724Z,4.07
2023-09-08T14:24:18.602Z,4.10
2023-09-08T14:26:47.414Z,4.20
2023-09-08T14:29:16.114Z,4.50
2023-09-08T14:31:44.978Z,4.28
2023-09-08T14:34:13.784Z,3.60
2023-09-08T14:36:42.357Z,4.28
2023-09-08T14:39:11.149Z,4.28
2023-09-08T14:41:41.176Z,4.13
2023-09-08T14:44:09.792Z,4.70
2023-09-08T14:46:38.384Z,4.65
2023-09-08T14:49:06.981Z,4.47
2023-09-08T14:51:35.750Z,4.20
2023-09-08T14:54:04.909Z,4.25
2023-09-08T14:56:33.532Z,4.50
2023-09-08T14:59:03.711Z,4.68
2023-09-08T15:01:32.558Z,4.40
2023-09-08T15:04:01.702Z,3.90
2023-09-08T15:06:30.484Z,4.22
2023-09-08T15:08:59.044Z,3.97
2023-09-08T15:11:27.594Z,4.18
2023-09-08T15:13:56.536Z,4.57
2023-09-08T15:16:26.633Z,4.25
2023-09-08T15:18:57.975Z,4.10
2023-09-08T15:21:28.755Z,4.38
2023-09-08T15:23:57.622Z,4.25
2023-09-08T15:26:26.297Z,4.72
2023-09-08T15:28:54.969Z,4.65
2023-09-08T15:31:24.682Z,3.88
2023-09-08T15:33:55.038Z,4.60
2023-09-08T15:36:24.088Z,4.63
2023-09-08T15:38:52.758Z,4.32
2023-09-08T15:41:21.582Z,4.57
2023-09-08T15:43:53.326Z,4.40
2023-09-08T15:46:22.477Z,4.35
2023-09-08T15:48:51.015Z,4.68
2023-09-08T15:51:20.982Z,4.72
2023-09-08T15:53:49.720Z,4.28
2023-09-08T15:56:18.335Z,4.10
2023-09-08T15:58:47.065Z,4.85
2023-09-08T16:01:15.856Z,5.10
2023-09-08T16:03:45.145Z,5.07
2023-09-08T16:06:14.659Z,4.80
2023-09-08T16:08:44.644Z,4.63
2023-09-08T16:11:13.523Z,4.35
2023-09-08T16:13:42.194Z,4.05
2023-09-08T16:16:10.808Z,5.00
2023-09-08T16:18:39.489Z,4.47
2023-09-08T16:21:08.049Z,4.43
2023-09-08T16:23:36.940Z,4.47
2023-09-08T16:26:07.123Z,4.40
2023-09-08T16:28:36.102Z,3.95
2023-09-08T16:31:06.607Z,4.65
2023-09-08T16:33:36.226Z,8.88
2023-09-08T16:36:05.188Z,4.97
2023-09-08T16:38:35.729Z,5.07
2023-09-08T16:41:04.370Z,4.57
2023-09-08T16:43:34.662Z,5.03
2023-09-08T16:46:04.701Z,4.32
2023-09-08T16:48:33.553Z,4.97
2023-09-08T16:51:02.097Z,5.15
2023-09-08T16:53:30.780Z,4.68
2023-09-08T16:55:59.659Z,4.80
2023-09-08T16:58:30.230Z,3.65
2023-09-08T17:01:00.388Z,4.15
2023-09-08T17:03:29.052Z,4.03
2023-09-08T17:05:57.763Z,4.90
2023-09-08T17:08:29.006Z,5.85
2023-09-08T17:10:58.494Z,5.25
2023-09-08T17:13:27.271Z,6.22
2023-09-08T17:15:56.037Z,5.38
2023-09-08T17:18:26.959Z,5.00
2023-09-08T17:20:57.724Z,5.35
2023-09-08T17:23:26.405Z,11.85
2023-09-08T17:25:55.151Z,6.28
2023-09-08T17:28:23.856Z,5.70
2023-09-08T17:30:52.709Z,5.25
2023-09-08T17:33:21.492Z,4.85
2023-09-08T17:35:51.586Z,4.80
2023-09-08T17:38:20.220Z,4.47
2023-09-08T17:40:48.922Z,5.18
2023-09-08T17:43:17.737Z,5.10
2023-09-08T17:45:47.506Z,4.97
2023-09-08T17:48:16.475Z,5.28
2023-09-08T17:50:45.240Z,6.05
2023-09-08T17:53:15.453Z,5.35
2023-09-08T17:55:43.952Z,5.55
2023-09-08T17:58:12.961Z,5.60
2023-09-08T18:00:41.805Z,6.03
2023-09-08T18:03:12.820Z,6.03
2023-09-08T18:05:44.664Z,6.07
2023-09-08T18:08:13.731Z,6.10
2023-09-08T18:10:43.853Z,5.88
2023-09-08T18:13:12.595Z,6.78
2023-09-08T18:15:41.224Z,6.20
2023-09-08T18:18:10.206Z,6.70
2023-09-08T18:20:38.925Z,6.15
2023-09-08T18:23:07.426Z,5.80
2023-09-08T18:25:36.132Z,6.05
2023-09-08T18:28:08.776Z,6.05
2023-09-08T18:30:37.459Z,5.82
2023-09-08T18:33:06.454Z,5.75
2023-09-08T18:35:35.296Z,6.07
2023-09-08T18:38:04.510Z,6.05
2023-09-08T18:40:33.176Z,6.15
2023-09-08T18:43:01.908Z,7.13
2023-09-08T18:45:31.879Z,7.65
2023-09-08T18:48:00.595Z,7.25
2023-09-08T18:50:29.162Z,7.53
2023-09-08T18:52:57.829Z,7.68
2023-09-08T18:55:26.598Z,8.85
2023-09-08T18:57:55.462Z,7.88
2023-09-08T19:00:24.083Z,7.75
2023-09-08T19:02:54.426Z,8.02
2023-09-08T19:05:23.122Z,7.28
2023-09-08T19:07:51.973Z,8.30
2023-09-08T19:10:20.717Z,7.90
2023-09-08T19:12:49.249Z,8.43
2023-09-08T19:15:18.401Z,7.85
2023-09-08T19:17:47.664Z,7.82
2023-09-08T19:20:17.715Z,7.43
2023-09-08T19:22:46.305Z,7.63
2023-09-08T19:25:15.317Z,8.10
2023-09-08T19:27:44.305Z,7.35
2023-09-08T19:30:13.767Z,8.27
2023-09-08T19:32:43.350Z,8.02
2023-09-08T19:35:12.752Z,8.18
2023-09-08T19:37:43.938Z,8.80
2023-09-08T19:40:12.938Z,8.95
2023-09-08T19:42:41.698Z,10.15
2023-09-08T19:45:11.332Z,8.55
2023-09-08T19:47:40.203Z,9.27
2023-09-08T19:50:09.901Z,9.57
2023-09-08T19:52:40.463Z,8.13
2023-09-08T19:55:12.248Z,7.10
2023-09-08T19:57:40.951Z,7.45
2023-09-08T20:00:10.562Z,8.38
2023-09-08T20:02:39.489Z,8.45
2023-09-08T20:05:08.826Z,7.97
2023-09-08T20:07:39.617Z,7.47
2023-09-08T20:10:10.360Z,9.27
2023-09-08T20:12:42.742Z,8.05
2023-09-08T20:15:12.754Z,9.90
2023-09-08T20:17:43.939Z,7.50
2023-09-08T20:20:13.538Z,7.63
2023-09-08T20:22:42.425Z,7.97
2023-09-08T20:25:11.423Z,7.82
2023-09-08T20:27:41.609Z,7.65
2023-09-08T20:30:11.231Z,8.27
2023-09-08T20:32:39.891Z,8.68
2023-09-08T20:35:09.952Z,8.68
2023-09-08T20:37:39.678Z,8.75
2023-09-08T20:40:10.421Z,8.38
2023-09-08T20:42:39.112Z,8.25
2023-09-08T20:45:10.219Z,8.45
2023-09-08T20:47:39.083Z,10.10
2023-09-08T20:50:08.798Z,9.98
2023-09-08T20:52:38.505Z,12.00
2023-09-08T20:55:12.848Z,11.90
2023-09-08T20:57:41.885Z,10.80
2023-09-08T21:00:14.206Z,10.20
2023-09-08T21:02:43.247Z,11.05
2023-09-08T21:05:12.122Z,10.23
2023-09-08T21:07:41.460Z,9.52
2023-09-08T21:10:10.809Z,9.55
2023-09-08T21:12:39.629Z,9.88
2023-09-08T21:15:09.378Z,10.02
2023-09-08T21:17:39.648Z,8.50
2023-09-08T21:20:09.897Z,7.90
2023-09-08T21:22:38.821Z,9.02
2023-09-08T21:25:08.023Z,9.02
2023-09-08T21:27:36.996Z,8.20
2023-09-08T21:30:06.759Z,8.73
2023-09-08T21:32:35.840Z,8.60
2023-09-08T21:35:06.938Z,8.05
2023-09-08T21:37:36.521Z,8.30
2023-09-08T21:40:06.238Z,8.40
2023-09-08T21:42:35.196Z,8.95
2023-09-08T21:45:06.634Z,8.65
2023-09-08T21:47:35.996Z,9.63
2023-09-08T21:50:06.967Z,8.45
2023-09-08T21:52:39.049Z,8.63
2023-09-08T21:55:09.290Z,9.88
2023-09-08T21:58:01.604Z,10.23
2023-09-08T22:00:34.680Z,10.10
2023-09-08T22:03:04.389Z,10.07
2023-09-08T22:05:35.933Z,10.27
2023-09-08T22:08:05.787Z,10.07
2023-09-08T22:10:34.498Z,10.93
2023-09-08T22:13:03.792Z,10.77
2023-09-08T22:15:34.179Z,10.90
2023-09-08T22:18:03.418Z,12.75
2023-09-08T22:20:32.312Z,11.90
2023-09-08T22:23:02.466Z,12.93
2023-09-08T22:25:35.174Z,12.63
2023-09-08T22:28:04.628Z,12.10
2023-09-08T22:30:33.826Z,11.60
2023-09-08T22:33:05.518Z,12.15
2023-09-08T22:35:34.218Z,12.88
2023-09-08T22:38:05.941Z,11.18
2023-09-08T22:40:34.746Z,13.80
2023-09-08T22:43:03.825Z,12.00
2023-09-08T22:45:32.742Z,12.77
2023-09-08T22:48:01.740Z,12.88
2023-09-08T22:50:31.416Z,12.48
2023-09-08T22:53:01.359Z,11.52
2023-09-08T22:55:32.102Z,11.98
2023-09-08T22:58:00.898Z,11.20
2023-09-08T23:00:29.619Z,10.95
2023-09-08T23:02:58.500Z,11.60
2023-09-08T23:05:27.265Z,12.48
2023-09-08T23:07:55.873Z,10.35
2023-09-08T23:10:24.502Z,10.50
2023-09-08T23:12:54.457Z,11.20
2023-09-08T23:15:25.871Z,10.60
2023-09-08T23:17:54.748Z,9.95
2023-09-08T23:20:23.588Z,9.52
2023-09-08T23:22:52.982Z,9.88
2023-09-08T23:25:21.894Z,9.88
2023-09-08T23:27:50.928Z,9.10
2023-09-08T23:30:21.510Z,9.35
2023-09-08T23:32:50.847Z,8.60
2023-09-08T23:35:19.508Z,9.02
2023-09-08T23:37:48.972Z,8.18
2023-09-08T23:40:17.696Z,8.35
2023-09-08T23:42:49.007Z,8.32
2023-09-08T23:45:18.139Z,7.60
2023-09-08T23:47:51.657Z,7.97
2023-09-08T23:50:20.816Z,7.75
2023-09-08T23:52:49.429Z,8.07
2023-09-08T23:55:18.298Z,7.97
2023-09-08T23:57:47.335Z,7.55
